KCCB/CCB METAR and TAF weather

Enter ICAO airport designator
Station Type Date Time Source
KCCB METAR 2019/10/19 14:40 UTC NOAA

KCCB 191440Z AUTO 00000KT 10SM CLR 16/M01 A2993 RMK AO2


Station Type Date Time Source
KCCB Decoded METAR 2019/10/19 14:40 UTC NOAA

Station name not available
Oct 19, 2019 - 10:40 AM EDT / 2019.10.19 1440 UTC
Wind: Calm:0
Visibility: 10 mile(s):0
Sky conditions: clear
Temperature: 60 F (16 C)
Dew Point: 30 F (-1 C)
Relative Humidity: 31%
Pressure (altimeter): 29.93 in. Hg (1013 hPa)
ob: KCCB 191440Z AUTO 00000KT 10SM CLR 16/M01 A2993 RMK AO2
cycle: 14

Station Type Date Time Source
KCCB TAF UTC NOAA

Error!

Example: see airport list